Terminal Aerodrome Forecast
Issued by NWS Twin Cities, MN

Home | Current Version | Previous Version | Text Only | Print | Product List | Glossary Off
Versions: 1 2 3 4 5 6 7 8 9 10 11 12 13 14 15 16 17 18 19 20 21

944
FTUS43 KMPX 222128 AAA
TAFEAU
TAF AMD
KEAU 222128Z 2221/2318 32004KT 6SM BR OVC008
     FM230000 29003KT 3SM BR OVC005
     FM230300 VRB03KT 1SM BR OVC003
     FM231200 VRB03KT 4SM BR OVC005
     FM231600 VRB03KT P6SM OVC008=

USA.gov is the U.S. government's official web portal to all federal, state and local government web resources and services.